Time;durP1;ratioP1;P1;durP2;ratioP2;P2;SDS_P1;SDS_P2;PMS_P1;PMS_P2;Temp;Humidity;BMP_temperature;BMP_pressure;BME280_temperature;BME280_humidity;BME280_pressure;Samples;Min_cycle;Max_cycle;Signal;HPM_P1;HPM_P2
2022/07/19 00:01:33;;;;;;;;;;;23.20;59.90;;;;;;5090929;28;19923;-65
2022/07/19 00:03:59;;;;;;;;;;;23.10;60.40;;;;;;5091266;28;19916;-66
2022/07/19 00:06:24;;;;;;;;;;;23.00;60.60;;;;;;5094266;28;20370;-65
2022/07/19 00:08:50;;;;;;;;;;;23.10;60.50;;;;;;5093585;28;19916;-66
2022/07/19 00:11:15;;;;;;;;;;;23.10;61.20;;;;;;5104749;28;19924;-66
2022/07/19 00:13:41;;;;;;;;;;;23.10;60.30;;;;;;5095384;28;19908;-66
2022/07/19 00:16:07;;;;;;;;;;;23.00;60.80;;;;;;5097309;28;19912;-66
2022/07/19 00:18:32;;;;;;;;;;;23.00;60.90;;;;;;5095717;28;19924;-66
2022/07/19 00:20:58;;;;;;;;;;;22.90;61.00;;;;;;5095226;28;19912;-66
2022/07/19 00:23:23;;;;;;;;;;;23.00;60.80;;;;;;5093139;28;19916;-66
2022/07/19 00:25:49;;;;;;;;;;;23.00;60.60;;;;;;5088486;28;20414;-66
2022/07/19 00:28:15;;;;;;;;;;;22.90;61.20;;;;;;5092459;28;20265;-66
2022/07/19 00:30:40;;;;;;;;;;;22.90;61.10;;;;;;5095692;28;19912;-66
2022/07/19 00:33:09;;;;;;;;;;;22.80;61.20;;;;;;5095746;28;19935;-66
2022/07/19 00:35:36;;;;;;;;;;;22.80;61.00;;;;;;5096417;28;20375;-66
2022/07/19 00:38:05;;;;;;;;;;;22.70;62.00;;;;;;5101572;28;19965;-66
2022/07/19 00:40:32;;;;;;;;;;;22.70;61.60;;;;;;5094768;28;19920;-65
2022/07/19 00:42:57;;;;;;;;;;;22.70;61.40;;;;;;5095025;28;20334;-66
2022/07/19 00:45:23;;;;;;;;;;;22.70;60.50;;;;;;5104981;28;19943;-65
2022/07/19 00:47:49;;;;;;;;;;;22.80;60.70;;;;;;5092057;28;19923;-65
2022/07/19 00:50:14;;;;;;;;;;;22.70;61.00;;;;;;5094264;28;19963;-65
2022/07/19 00:52:42;;;;;;;;;;;22.70;61.30;;;;;;5096327;28;19915;-66
2022/07/19 00:55:09;;;;;;;;;;;22.70;60.30;;;;;;5099748;28;20434;-65
2022/07/19 00:57:37;;;;;;;;;;;22.60;61.00;;;;;;5102589;28;19969;-66
2022/07/19 01:00:04;;;;;;;;;;;22.70;60.90;;;;;;5096055;28;19920;-65
2022/07/19 01:02:31;;;;;;;;;;;22.70;61.20;;;;;;5094285;28;19965;-67
2022/07/19 01:04:57;;;;;;;;;;;22.80;60.90;;;;;;5100772;28;19918;-65
2022/07/19 01:07:22;;;;;;;;;;;22.70;61.00;;;;;;5095737;28;19999;-66
2022/07/19 01:09:48;;;;;;;;;;;22.70;60.90;;;;;;5096057;28;19919;-67
2022/07/19 01:12:14;;;;;;;;;;;22.70;60.90;;;;;;5089263;28;20043;-66
2022/07/19 01:14:40;;;;;;;;;;;22.70;60.80;;;;;;5108991;28;20373;-66
2022/07/19 01:17:05;;;;;;;;;;;22.70;60.80;;;;;;5096650;28;19951;-67
2022/07/19 01:19:31;;;;;;;;;;;22.70;60.80;;;;;;5090740;28;19920;-66
2022/07/19 01:21:57;;;;;;;;;;;22.70;60.70;;;;;;5075282;28;19919;-66
2022/07/19 01:24:22;;;;;;;;;;;22.60;60.90;;;;;;5093600;28;20010;-66
2022/07/19 01:26:48;;;;;;;;;;;22.60;60.40;;;;;;5078626;28;19916;-67
2022/07/19 01:29:14;;;;;;;;;;;22.70;60.60;;;;;;5105414;28;19919;-66
2022/07/19 01:31:40;;;;;;;;;;;22.70;60.80;;;;;;5097410;28;20430;-66
2022/07/19 01:34:05;;;;;;;;;;;22.60;60.60;;;;;;5098356;28;19994;-65
2022/07/19 01:36:31;;;;;;;;;;;22.60;59.70;;;;;;5077742;28;20272;-66
2022/07/19 01:38:56;;;;;;;;;;;22.60;59.70;;;;;;5097929;28;19919;-66
2022/07/19 01:41:22;;;;;;;;;;;22.70;59.20;;;;;;5083023;28;19916;-66
2022/07/19 01:43:48;;;;;;;;;;;22.70;57.80;;;;;;5096501;28;19971;-66
2022/07/19 01:46:13;;;;;;;;;;;22.80;57.60;;;;;;5095641;28;19973;-67
2022/07/19 01:48:39;;;;;;;;;;;22.90;57.00;;;;;;5098944;28;19920;-66
2022/07/19 01:51:05;;;;;;;;;;;23.00;56.30;;;;;;5104381;28;20333;-66
2022/07/19 01:53:30;;;;;;;;;;;23.10;55.30;;;;;;5096850;28;19964;-65
2022/07/19 01:55:56;;;;;;;;;;;23.20;55.30;;;;;;5087209;28;20381;-66
2022/07/19 01:58:21;;;;;;;;;;;23.20;55.00;;;;;;5102809;28;20511;-66
2022/07/19 02:00:47;;;;;;;;;;;23.30;54.80;;;;;;5101737;28;20111;-66
2022/07/19 02:03:12;;;;;;;;;;;23.30;54.00;;;;;;5098728;28;19916;-66
2022/07/19 02:05:38;;;;;;;;;;;23.30;54.00;;;;;;5097189;28;19920;-66
2022/07/19 02:08:04;;;;;;;;;;;23.40;53.90;;;;;;5104295;28;19938;-66
2022/07/19 02:10:29;;;;;;;;;;;23.40;54.20;;;;;;5103569;28;19911;-66
2022/07/19 02:12:55;;;;;;;;;;;23.40;53.70;;;;;;5074054;28;20389;-66
2022/07/19 02:15:21;;;;;;;;;;;23.30;53.80;;;;;;5096444;28;20354;-66
2022/07/19 02:17:46;;;;;;;;;;;23.40;53.80;;;;;;5079489;28;19939;-66
2022/07/19 02:20:12;;;;;;;;;;;23.30;54.30;;;;;;5074422;28;20279;-66
2022/07/19 02:22:38;;;;;;;;;;;23.20;54.60;;;;;;5077274;28;20438;-66
2022/07/19 02:25:04;;;;;;;;;;;23.20;54.50;;;;;;5073320;28;19912;-66
2022/07/19 02:27:30;;;;;;;;;;;23.10;54.70;;;;;;5075513;28;19912;-67
2022/07/19 02:29:55;;;;;;;;;;;23.10;54.50;;;;;;5076195;28;19912;-67
2022/07/19 02:32:21;;;;;;;;;;;23.30;54.10;;;;;;5078125;28;19965;-64
2022/07/19 02:34:46;;;;;;;;;;;23.30;53.50;;;;;;5075738;28;19913;-65
2022/07/19 02:37:12;;;;;;;;;;;23.40;53.40;;;;;;5083567;28;19962;-65
2022/07/19 02:39:37;;;;;;;;;;;23.30;53.10;;;;;;5083877;28;19955;-65
2022/07/19 02:42:03;;;;;;;;;;;23.40;52.80;;;;;;5078635;28;19935;-66
2022/07/19 02:44:29;;;;;;;;;;;23.40;53.00;;;;;;5078468;28;19916;-66
2022/07/19 02:46:54;;;;;;;;;;;23.40;53.10;;;;;;5079969;28;19991;-66
2022/07/19 02:49:20;;;;;;;;;;;23.40;54.10;;;;;;5074459;28;19912;-66
2022/07/19 02:51:46;;;;;;;;;;;23.30;54.90;;;;;;5079504;28;20002;-66
2022/07/19 02:54:12;;;;;;;;;;;23.20;54.10;;;;;;5083753;28;20003;-66
2022/07/19 02:56:37;;;;;;;;;;;23.10;55.60;;;;;;5072523;28;19948;-67
2022/07/19 02:59:03;;;;;;;;;;;23.10;55.90;;;;;;5072257;28;19960;-66
2022/07/19 03:01:29;;;;;;;;;;;23.10;56.00;;;;;;5076469;28;19924;-66
2022/07/19 03:03:55;;;;;;;;;;;23.00;55.70;;;;;;5075616;28;19916;-64
2022/07/19 03:06:21;;;;;;;;;;;23.00;54.40;;;;;;5074116;28;19920;-65
2022/07/19 03:08:47;;;;;;;;;;;22.90;54.90;;;;;;5073249;28;19962;-65
2022/07/19 03:11:12;;;;;;;;;;;23.00;54.70;;;;;;5083057;28;19965;-66
2022/07/19 03:13:38;;;;;;;;;;;23.00;55.50;;;;;;5079199;28;19999;-66
2022/07/19 03:16:04;;;;;;;;;;;23.10;55.40;;;;;;5075690;28;20382;-66
2022/07/19 03:18:30;;;;;;;;;;;23.10;57.00;;;;;;5094804;28;20278;-65
2022/07/19 03:20:57;;;;;;;;;;;23.10;57.50;;;;;;5096208;28;19955;-66
2022/07/19 03:23:25;;;;;;;;;;;22.90;56.00;;;;;;5078366;28;19966;-66
2022/07/19 03:25:50;;;;;;;;;;;22.90;57.80;;;;;;5100999;28;19912;-66
2022/07/19 03:28:16;;;;;;;;;;;22.90;59.40;;;;;;5095757;28;19918;-66
2022/07/19 03:30:42;;;;;;;;;;;22.90;57.30;;;;;;5095149;28;19972;-66
2022/07/19 03:33:07;;;;;;;;;;;22.90;56.80;;;;;;5095157;28;19955;-65
2022/07/19 03:35:33;;;;;;;;;;;22.90;57.60;;;;;;5097548;28;19912;-66
2022/07/19 03:37:58;;;;;;;;;;;22.90;58.00;;;;;;5092169;28;20407;-67
2022/07/19 03:40:24;;;;;;;;;;;22.80;55.70;;;;;;5096552;28;19918;-66
2022/07/19 03:42:49;;;;;;;;;;;22.80;56.10;;;;;;5103043;28;19955;-66
2022/07/19 03:45:15;;;;;;;;;;;22.80;56.90;;;;;;5094051;28;19916;-66
2022/07/19 03:47:40;;;;;;;;;;;22.80;57.00;;;;;;5112588;28;19916;-66
2022/07/19 03:50:06;;;;;;;;;;;22.80;56.90;;;;;;5100272;28;19912;-66
2022/07/19 03:52:32;;;;;;;;;;;22.70;57.00;;;;;;5090083;28;19962;-66
2022/07/19 03:54:57;;;;;;;;;;;22.70;59.40;;;;;;5096548;28;19914;-65
2022/07/19 03:57:23;;;;;;;;;;;22.60;57.10;;;;;;5095043;28;20539;-66
2022/07/19 03:59:48;;;;;;;;;;;22.70;58.40;;;;;;5081011;28;20018;-65
2022/07/19 04:02:14;;;;;;;;;;;22.70;57.30;;;;;;5092414;28;19952;-66
2022/07/19 04:04:39;;;;;;;;;;;22.60;58.80;;;;;;5088672;28;19954;-66
2022/07/19 04:07:05;;;;;;;;;;;22.50;58.50;;;;;;5100209;28;19965;-65
2022/07/19 04:09:31;;;;;;;;;;;22.40;58.60;;;;;;5095411;28;20278;-66
2022/07/19 04:11:56;;;;;;;;;;;22.40;58.20;;;;;;5100781;28;19918;-66
2022/07/19 04:14:22;;;;;;;;;;;22.30;58.90;;;;;;5092678;28;19923;-67
2022/07/19 04:16:47;;;;;;;;;;;22.30;58.60;;;;;;5094637;28;19919;-66
2022/07/19 04:19:13;;;;;;;;;;;22.40;60.40;;;;;;5092113;28;19936;-66
2022/07/19 04:21:38;;;;;;;;;;;22.50;61.70;;;;;;5073675;28;20049;-66
2022/07/19 04:24:04;;;;;;;;;;;22.50;60.40;;;;;;5095340;28;19964;-66
2022/07/19 04:26:30;;;;;;;;;;;22.50;58.50;;;;;;5105461;28;20010;-66
2022/07/19 04:28:55;;;;;;;;;;;22.40;59.90;;;;;;5097157;28;20038;-65
2022/07/19 04:31:21;;;;;;;;;;;22.40;58.40;;;;;;5078083;28;19926;-66
2022/07/19 04:33:46;;;;;;;;;;;22.50;58.60;;;;;;5101445;28;19912;-65
2022/07/19 04:36:12;;;;;;;;;;;22.50;58.90;;;;;;5094040;28;20007;-65
2022/07/19 04:38:37;;;;;;;;;;;22.40;60.00;;;;;;5090072;28;19920;-67
2022/07/19 04:41:03;;;;;;;;;;;22.40;60.40;;;;;;5094987;28;19920;-66
2022/07/19 04:43:28;;;;;;;;;;;22.40;59.70;;;;;;5082494;28;20011;-66
2022/07/19 04:45:54;;;;;;;;;;;22.40;60.00;;;;;;5092289;28;20278;-65
2022/07/19 04:48:20;;;;;;;;;;;22.30;60.00;;;;;;5099715;28;19911;-66
2022/07/19 04:50:45;;;;;;;;;;;22.30;60.00;;;;;;5094848;28;20443;-66
2022/07/19 04:53:11;;;;;;;;;;;22.40;59.80;;;;;;5092312;28;19923;-65
2022/07/19 04:55:37;;;;;;;;;;;22.40;60.10;;;;;;5094151;28;19916;-65
2022/07/19 04:58:03;;;;;;;;;;;22.40;60.60;;;;;;5099888;28;19918;-66
2022/07/19 05:00:29;;;;;;;;;;;22.40;60.10;;;;;;5109744;28;19912;-66
2022/07/19 05:02:55;;;;;;;;;;;22.40;60.50;;;;;;5098073;28;19951;-65
2022/07/19 05:05:21;;;;;;;;;;;22.40;60.40;;;;;;5104889;28;19911;-66
2022/07/19 05:07:46;;;;;;;;;;;22.40;60.20;;;;;;5097330;28;19951;-66
2022/07/19 05:10:12;;;;;;;;;;;22.30;60.50;;;;;;5096573;28;19994;-64
2022/07/19 05:12:39;;;;;;;;;;;22.30;61.60;;;;;;5094653;28;19912;-65
2022/07/19 05:15:05;;;;;;;;;;;22.40;61.00;;;;;;5100655;28;20016;-65
2022/07/19 05:17:30;;;;;;;;;;;22.50;60.80;;;;;;5095078;28;19931;-66
2022/07/19 05:19:56;;;;;;;;;;;22.60;60.10;;;;;;5095775;28;20367;-66
2022/07/19 05:22:24;;;;;;;;;;;22.70;60.90;;;;;;5078638;28;19912;-66
2022/07/19 05:24:49;;;;;;;;;;;22.80;60.90;;;;;;5095158;28;20312;-66
2022/07/19 05:27:15;;;;;;;;;;;22.90;60.10;;;;;;5095683;28;19916;-66
2022/07/19 05:29:40;;;;;;;;;;;23.00;59.30;;;;;;5098426;28;20369;-65
2022/07/19 05:32:06;;;;;;;;;;;23.30;58.40;;;;;;5100329;28;19912;-67
2022/07/19 05:34:32;;;;;;;;;;;23.40;58.70;;;;;;5096810;28;19924;-67
2022/07/19 05:36:57;;;;;;;;;;;23.50;58.60;;;;;;5094523;28;20175;-66
2022/07/19 05:39:23;;;;;;;;;;;23.50;59.50;;;;;;5101564;28;19927;-65
2022/07/19 05:41:48;;;;;;;;;;;23.50;59.40;;;;;;5098551;28;19948;-66
2022/07/19 05:44:14;;;;;;;;;;;23.50;59.80;;;;;;5092775;28;21589;-66
2022/07/19 05:46:40;;;;;;;;;;;23.50;60.20;;;;;;5089068;28;19919;-66
2022/07/19 05:49:07;;;;;;;;;;;23.60;59.90;;;;;;5091718;28;20406;-66
2022/07/19 05:51:32;;;;;;;;;;;23.60;58.80;;;;;;5093081;28;19962;-66
2022/07/19 05:54:00;;;;;;;;;;;23.70;59.80;;;;;;5091255;28;19943;-66
2022/07/19 05:56:26;;;;;;;;;;;23.80;59.90;;;;;;5091307;28;20437;-67
2022/07/19 05:58:51;;;;;;;;;;;23.90;60.20;;;;;;5089114;28;21266;-66
2022/07/19 06:01:22;;;;;;;;;;;23.90;60.00;;;;;;5090071;28;20001;-66
2022/07/19 06:03:52;;;;;;;;;;;23.90;59.50;;;;;;5093741;28;20400;-66
2022/07/19 06:06:18;;;;;;;;;;;24.00;58.70;;;;;;5069769;28;20061;-66
2022/07/19 06:08:44;;;;;;;;;;;24.10;59.00;;;;;;5085479;28;19919;-66
2022/07/19 06:11:10;;;;;;;;;;;24.20;58.50;;;;;;5103435;28;19916;-67
2022/07/19 06:13:35;;;;;;;;;;;24.30;59.40;;;;;;5094739;28;19912;-66
2022/07/19 06:16:01;;;;;;;;;;;24.40;59.10;;;;;;5092547;28;19922;-66
2022/07/19 06:18:30;;;;;;;;;;;24.50;59.00;;;;;;5097347;28;19920;-67
2022/07/19 06:20:55;;;;;;;;;;;24.50;58.50;;;;;;5079570;28;19971;-66
2022/07/19 06:23:21;;;;;;;;;;;24.60;58.40;;;;;;5095158;28;19947;-67
2022/07/19 06:25:46;;;;;;;;;;;24.70;58.30;;;;;;5090022;28;19920;-65
2022/07/19 06:28:12;;;;;;;;;;;24.70;58.20;;;;;;5071972;28;21285;-66
2022/07/19 06:30:37;;;;;;;;;;;24.80;58.50;;;;;;5094537;28;19991;-66
2022/07/19 06:33:03;;;;;;;;;;;24.90;57.80;;;;;;5101672;28;20010;-66
2022/07/19 06:35:29;;;;;;;;;;;25.00;57.50;;;;;;5096503;28;19912;-66
2022/07/19 06:37:54;;;;;;;;;;;25.10;57.80;;;;;;5093651;28;19912;-67
2022/07/19 06:40:20;;;;;;;;;;;25.20;57.30;;;;;;5105222;28;20367;-67
2022/07/19 06:42:45;;;;;;;;;;;25.20;57.30;;;;;;5098524;28;19950;-66
2022/07/19 06:45:11;;;;;;;;;;;25.40;57.50;;;;;;5099684;28;19916;-65
2022/07/19 06:47:37;;;;;;;;;;;25.40;56.40;;;;;;5096720;28;19991;-67
2022/07/19 06:50:03;;;;;;;;;;;25.60;56.40;;;;;;5085223;28;20345;-66
2022/07/19 06:52:29;;;;;;;;;;;25.80;55.00;;;;;;5094863;28;19927;-67
2022/07/19 06:54:54;;;;;;;;;;;25.80;54.90;;;;;;5075979;28;19912;-67
2022/07/19 06:57:20;;;;;;;;;;;26.00;56.00;;;;;;5099906;28;20007;-67
2022/07/19 06:59:45;;;;;;;;;;;26.20;52.90;;;;;;5100369;28;19988;-67
2022/07/19 07:02:11;;;;;;;;;;;26.30;53.60;;;;;;5092908;28;19923;-66
2022/07/19 07:04:37;;;;;;;;;;;26.30;52.50;;;;;;5092444;28;19912;-66
2022/07/19 07:07:02;;;;;;;;;;;26.50;52.30;;;;;;5100404;28;20374;-66
2022/07/19 07:09:28;;;;;;;;;;;26.80;50.60;;;;;;5102622;28;19912;-66
2022/07/19 07:11:53;;;;;;;;;;;27.00;50.40;;;;;;5097654;28;19956;-67
2022/07/19 07:14:19;;;;;;;;;;;27.10;50.20;;;;;;5095129;28;19916;-66
2022/07/19 07:16:44;;;;;;;;;;;27.30;49.40;;;;;;5096578;28;19908;-67
2022/07/19 07:19:10;;;;;;;;;;;27.50;48.80;;;;;;5104571;28;20010;-67
2022/07/19 07:21:35;;;;;;;;;;;27.70;48.60;;;;;;5104625;28;19971;-68
2022/07/19 07:24:01;;;;;;;;;;;27.70;49.30;;;;;;5102340;28;19911;-66
2022/07/19 07:26:27;;;;;;;;;;;27.80;48.00;;;;;;5092521;28;19913;-66
2022/07/19 07:28:53;;;;;;;;;;;27.80;48.00;;;;;;5096931;28;20018;-64
2022/07/19 07:31:19;;;;;;;;;;;28.00;47.60;;;;;;5093595;28;20301;-65
2022/07/19 07:33:44;;;;;;;;;;;28.10;47.10;;;;;;5101134;28;19912;-65
2022/07/19 07:36:10;;;;;;;;;;;28.30;46.80;;;;;;5094947;28;19919;-65
2022/07/19 07:38:36;;;;;;;;;;;28.40;46.80;;;;;;5091458;28;19973;-66
2022/07/19 07:41:02;;;;;;;;;;;28.50;46.60;;;;;;5097314;28;19920;-65
2022/07/19 07:43:28;;;;;;;;;;;28.50;46.00;;;;;;5091680;28;19912;-66
2022/07/19 07:45:53;;;;;;;;;;;28.50;47.00;;;;;;5091205;28;20321;-66
2022/07/19 07:48:19;;;;;;;;;;;28.50;46.80;;;;;;5099365;28;20278;-66
2022/07/19 07:50:44;;;;;;;;;;;28.60;46.90;;;;;;5087799;28;20006;-63
2022/07/19 07:53:10;;;;;;;;;;;28.70;46.80;;;;;;5093745;28;19926;-65
2022/07/19 07:55:39;;;;;;;;;;;28.90;46.80;;;;;;5094010;28;20621;-66
2022/07/19 07:58:08;;;;;;;;;;;28.90;46.80;;;;;;5101120;28;19964;-66
2022/07/19 08:00:35;;;;;;;;;;;28.80;46.50;;;;;;5092397;28;19998;-66
2022/07/19 08:03:01;;;;;;;;;;;28.80;46.70;;;;;;5095662;28;19912;-65
2022/07/19 08:05:26;;;;;;;;;;;29.00;46.20;;;;;;5079920;28;20007;-65
2022/07/19 08:07:52;;;;;;;;;;;29.00;46.30;;;;;;5098908;28;19982;-65
2022/07/19 08:10:18;;;;;;;;;;;29.10;46.70;;;;;;5079654;28;19923;-64
2022/07/19 08:12:43;;;;;;;;;;;29.10;47.10;;;;;;5084039;28;19912;-65
2022/07/19 08:15:09;;;;;;;;;;;29.20;46.10;;;;;;5092938;28;19999;-66
2022/07/19 08:17:34;;;;;;;;;;;29.30;46.10;;;;;;5102976;28;20159;-65
2022/07/19 08:20:00;;;;;;;;;;;29.40;45.50;;;;;;5093822;28;19927;-66
2022/07/19 08:22:28;;;;;;;;;;;29.40;45.70;;;;;;5093513;28;20044;-66
2022/07/19 08:24:53;;;;;;;;;;;29.40;46.40;;;;;;5088081;28;20345;-65
2022/07/19 08:27:19;;;;;;;;;;;29.50;47.10;;;;;;5094406;28;19916;-65
2022/07/19 08:29:44;;;;;;;;;;;29.70;45.30;;;;;;5091303;28;20269;-66
2022/07/19 08:32:10;;;;;;;;;;;29.80;45.10;;;;;;5097607;28;19919;-65
2022/07/19 08:34:35;;;;;;;;;;;29.80;44.80;;;;;;5091906;28;20340;-66
2022/07/19 08:37:01;;;;;;;;;;;29.90;44.40;;;;;;5092044;28;20232;-64
2022/07/19 08:39:27;;;;;;;;;;;29.80;44.00;;;;;;5091569;28;20306;-64
2022/07/19 08:41:52;;;;;;;;;;;29.80;44.50;;;;;;5096817;28;19923;-66
2022/07/19 08:44:18;;;;;;;;;;;29.80;44.40;;;;;;5100248;28;19934;-65
2022/07/19 08:46:44;;;;;;;;;;;29.80;44.70;;;;;;5073325;28;20021;-65
2022/07/19 08:49:10;;;;;;;;;;;29.90;45.80;;;;;;5102087;28;20347;-66
2022/07/19 08:51:36;;;;;;;;;;;29.90;44.70;;;;;;5101253;28;19919;-66
2022/07/19 08:54:01;;;;;;;;;;;30.00;45.10;;;;;;5089508;28;19916;-66
2022/07/19 08:59:12;;;;;;;;;;;30.10;44.60;;;;;;5096894;28;19932;-65
2022/07/19 09:01:38;;;;;;;;;;;30.30;44.90;;;;;;5094970;28;20002;-65
2022/07/19 09:04:10;;;;;;;;;;;30.50;44.60;;;;;;5090961;28;20003;-65
2022/07/19 09:06:39;;;;;;;;;;;30.60;44.00;;;;;;5089425;28;19995;-65
2022/07/19 09:09:05;;;;;;;;;;;30.70;43.70;;;;;;5099097;28;20389;-65
2022/07/19 09:11:38;;;;;;;;;;;30.90;43.20;;;;;;5091119;28;19948;-65
2022/07/19 09:14:08;;;;;;;;;;;31.10;42.40;;;;;;5103232;28;19908;-65
2022/07/19 09:17:03;;;;;;;;;;;31.20;41.70;;;;;;5092481;28;19931;-65
2022/07/19 09:19:33;;;;;;;;;;;31.20;41.90;;;;;;5096230;28;19927;-64
2022/07/19 09:21:59;;;;;;;;;;;31.30;41.10;;;;;;5099746;28;19919;-65
2022/07/19 09:24:25;;;;;;;;;;;31.30;41.00;;;;;;5091502;28;19916;-65
2022/07/19 09:27:01;;;;;;;;;;;31.40;40.70;;;;;;5093806;28;20311;-65
2022/07/19 09:29:27;;;;;;;;;;;31.60;40.10;;;;;;5086646;28;19912;-65
2022/07/19 09:32:00;;;;;;;;;;;31.70;39.30;;;;;;5106752;28;19991;-66
2022/07/19 09:34:29;;;;;;;;;;;31.70;40.20;;;;;;5081207;28;19929;-65
2022/07/19 09:37:15;;;;;;;;;;;31.80;38.70;;;;;;5093450;28;19980;-65
2022/07/19 09:39:44;;;;;;;;;;;31.90;37.70;;;;;;5091722;28;19927;-65
2022/07/19 09:42:20;;;;;;;;;;;31.90;38.40;;;;;;5075877;28;19939;-64
2022/07/19 09:44:55;;;;;;;;;;;32.00;38.20;;;;;;5076992;28;20278;-64
2022/07/19 09:47:29;;;;;;;;;;;31.90;38.20;;;;;;5096447;28;19911;-64
2022/07/19 09:49:55;;;;;;;;;;;31.90;38.00;;;;;;5095638;28;20003;-64
2022/07/19 09:52:21;;;;;;;;;;;31.80;38.00;;;;;;5103485;28;20054;-63
2022/07/19 09:54:46;;;;;;;;;;;31.80;38.20;;;;;;5095187;28;19956;-64
2022/07/19 09:57:13;;;;;;;;;;;31.70;38.50;;;;;;5093864;28;20321;-64
2022/07/19 09:59:45;;;;;;;;;;;31.80;38.80;;;;;;5091076;28;20400;-63
2022/07/19 10:02:12;;;;;;;;;;;31.70;38.40;;;;;;5101437;28;19927;-64
2022/07/19 10:04:37;;;;;;;;;;;31.90;38.60;;;;;;5084515;28;19931;-64
2022/07/19 10:07:03;;;;;;;;;;;32.00;38.30;;;;;;5083988;28;19911;-64
2022/07/19 10:09:29;;;;;;;;;;;32.00;38.20;;;;;;5098278;28;19926;-65
2022/07/19 10:11:55;;;;;;;;;;;32.10;38.60;;;;;;5095019;28;20348;-66
2022/07/19 10:14:21;;;;;;;;;;;32.10;38.40;;;;;;5086342;28;20154;-64
2022/07/19 10:16:58;;;;;;;;;;;32.20;38.00;;;;;;5086456;28;19924;-65
2022/07/19 10:19:42;;;;;;;;;;;32.20;38.70;;;;;;5095287;28;19924;-65
2022/07/19 10:22:15;;;;;;;;;;;32.30;38.50;;;;;;5102498;28;20366;-64
2022/07/19 10:24:44;;;;;;;;;;;32.50;38.40;;;;;;5094870;28;19963;-65
2022/07/19 10:27:10;;;;;;;;;;;32.40;38.30;;;;;;5103482;28;20370;-65
2022/07/19 10:29:35;;;;;;;;;;;32.50;38.10;;;;;;5093265;28;19920;-65
2022/07/19 10:32:03;;;;;;;;;;;32.50;38.50;;;;;;5098463;28;19928;-65
2022/07/19 10:34:28;;;;;;;;;;;32.60;38.50;;;;;;5095018;28;19920;-66
2022/07/19 10:36:55;;;;;;;;;;;32.50;38.30;;;;;;5100567;28;19918;-65
2022/07/19 10:39:20;;;;;;;;;;;32.40;38.30;;;;;;5102649;28;19989;-65
2022/07/19 10:42:04;;;;;;;;;;;32.30;38.10;;;;;;5095479;28;20370;-65
2022/07/19 10:44:30;;;;;;;;;;;32.30;38.40;;;;;;5098641;28;19953;-65
2022/07/19 10:46:55;;;;;;;;;;;32.10;38.70;;;;;;5104938;28;19916;-66
2022/07/19 10:49:42;;;;;;;;;;;32.10;38.40;;;;;;5078001;28;19919;-64
2022/07/19 10:52:27;;;;;;;;;;;32.20;38.50;;;;;;5101849;28;19912;-65
2022/07/19 10:55:11;;;;;;;;;;;32.20;38.80;;;;;;5075334;28;19940;-65
2022/07/19 10:57:37;;;;;;;;;;;32.30;38.50;;;;;;5073524;28;19923;-65
2022/07/19 11:00:23;;;;;;;;;;;32.60;38.60;;;;;;5092202;28;20294;-65
2022/07/19 11:02:50;;;;;;;;;;;32.30;38.60;;;;;;5093975;28;19923;-66
2022/07/19 11:05:21;;;;;;;;;;;32.10;39.10;;;;;;5092612;28;20011;-65
2022/07/19 11:07:48;;;;;;;;;;;32.20;39.50;;;;;;5096487;28;19912;-66
2022/07/19 11:10:21;;;;;;;;;;;32.20;39.70;;;;;;5064556;28;19912;-66
2022/07/19 11:12:46;;;;;;;;;;;32.50;39.50;;;;;;5105977;28;19912;-66
2022/07/19 11:15:12;;;;;;;;;;;32.30;41.90;;;;;;5093577;28;20393;-66
2022/07/19 11:17:38;;;;;;;;;;;31.90;43.50;;;;;;5084676;28;19959;-65
2022/07/19 11:20:07;;;;;;;;;;;31.80;44.00;;;;;;5098201;28;19932;-65
2022/07/19 11:22:40;;;;;;;;;;;31.70;45.40;;;;;;5098554;28;19969;-65
2022/07/19 11:25:07;;;;;;;;;;;31.40;44.70;;;;;;5072962;28;19923;-65
2022/07/19 11:27:32;;;;;;;;;;;31.10;45.00;;;;;;5095113;28;19999;-65
2022/07/19 11:30:01;;;;;;;;;;;31.00;45.70;;;;;;5095132;28;20045;-66
2022/07/19 11:32:27;;;;;;;;;;;31.00;43.60;;;;;;5098276;28;19924;-66
2022/07/19 11:34:53;;;;;;;;;;;31.00;43.70;;;;;;5091105;28;19912;-65
2022/07/19 11:37:25;;;;;;;;;;;31.10;44.20;;;;;;5100630;28;20344;-65
2022/07/19 11:39:51;;;;;;;;;;;31.10;43.60;;;;;;5100909;28;19943;-66
2022/07/19 11:42:26;;;;;;;;;;;31.10;42.30;;;;;;5098707;28;20358;-66
2022/07/19 11:44:54;;;;;;;;;;;31.20;42.20;;;;;;5077693;28;19990;-66
2022/07/19 11:47:20;;;;;;;;;;;31.30;42.60;;;;;;5081946;28;20015;-65
2022/07/19 11:49:46;;;;;;;;;;;31.50;41.90;;;;;;5098767;28;19920;-65
2022/07/19 11:52:11;;;;;;;;;;;31.50;41.40;;;;;;5089901;28;19923;-65
2022/07/19 11:54:38;;;;;;;;;;;31.60;41.20;;;;;;5097392;28;19959;-65
2022/07/19 11:57:04;;;;;;;;;;;31.70;41.40;;;;;;5104028;28;19919;-65
2022/07/19 11:59:29;;;;;;;;;;;31.70;40.90;;;;;;5096418;28;19920;-65
2022/07/19 12:01:57;;;;;;;;;;;31.90;40.90;;;;;;5091626;28;19939;-65
2022/07/19 12:04:23;;;;;;;;;;;32.10;39.90;;;;;;5094404;28;19913;-65
2022/07/19 12:06:51;;;;;;;;;;;32.20;39.90;;;;;;5094089;28;19987;-66
2022/07/19 12:09:16;;;;;;;;;;;32.30;39.60;;;;;;5091219;28;19920;-65
2022/07/19 12:11:42;;;;;;;;;;;32.30;38.50;;;;;;5093319;28;20382;-65
2022/07/19 12:14:19;;;;;;;;;;;32.30;39.50;;;;;;5103338;28;20000;-65
2022/07/19 12:16:46;;;;;;;;;;;32.50;39.50;;;;;;5100918;28;20278;-64
2022/07/19 12:19:14;;;;;;;;;;;32.70;38.90;;;;;;5087044;28;19924;-66
2022/07/19 12:21:43;;;;;;;;;;;32.60;39.10;;;;;;5099397;28;19912;-65
2022/07/19 12:24:19;;;;;;;;;;;32.80;39.00;;;;;;5090204;28;19990;-65
2022/07/19 12:27:00;;;;;;;;;;;32.80;38.70;;;;;;5096046;28;19998;-66
2022/07/19 12:29:35;;;;;;;;;;;32.90;38.80;;;;;;5093188;28;20352;-66
2022/07/19 12:32:01;;;;;;;;;;;33.00;38.30;;;;;;5087820;28;20351;-65
2022/07/19 12:34:27;;;;;;;;;;;33.00;38.30;;;;;;5075408;28;19942;-65
2022/07/19 12:36:53;;;;;;;;;;;33.00;37.60;;;;;;5091052;28;19916;-65
2022/07/19 12:39:29;;;;;;;;;;;33.00;38.00;;;;;;5088580;28;20215;-65
2022/07/19 12:41:55;;;;;;;;;;;32.90;38.00;;;;;;5097562;28;19923;-63
2022/07/19 12:44:21;;;;;;;;;;;33.00;37.80;;;;;;5073588;28;20011;-65
2022/07/19 12:46:46;;;;;;;;;;;33.30;37.90;;;;;;5092860;28;20434;-66
2022/07/19 12:49:12;;;;;;;;;;;33.10;37.30;;;;;;5092690;28;20374;-66
2022/07/19 12:51:42;;;;;;;;;;;33.10;37.40;;;;;;5076846;28;19916;-65
2022/07/19 12:54:08;;;;;;;;;;;33.10;37.00;;;;;;5095009;28;19923;-64
2022/07/19 12:56:33;;;;;;;;;;;33.20;37.80;;;;;;5092897;28;19916;-65
2022/07/19 13:01:43;;;;;;;;;;;33.10;36.70;;;;;;5099021;28;20393;-65
2022/07/19 13:04:09;;;;;;;;;;;33.00;37.30;;;;;;5091297;28;20018;-65
2022/07/19 13:06:34;;;;;;;;;;;33.00;36.50;;;;;;5093165;28;19912;-64
2022/07/19 13:09:00;;;;;;;;;;;33.10;37.10;;;;;;5092327;28;19912;-66
2022/07/19 13:11:26;;;;;;;;;;;33.20;36.20;;;;;;5091045;28;20035;-64
2022/07/19 13:13:52;;;;;;;;;;;33.20;35.90;;;;;;5089287;28;19912;-64
2022/07/19 13:16:18;;;;;;;;;;;33.20;36.10;;;;;;5089767;28;19919;-65
2022/07/19 13:18:43;;;;;;;;;;;33.40;36.10;;;;;;5096091;28;20388;-65
2022/07/19 13:21:09;;;;;;;;;;;33.20;36.20;;;;;;5100079;28;19912;-64
2022/07/19 13:23:34;;;;;;;;;;;33.20;35.80;;;;;;5099320;28;19916;-65
2022/07/19 13:26:00;;;;;;;;;;;33.40;35.80;;;;;;5106580;28;19999;-65
2022/07/19 13:28:25;;;;;;;;;;;33.20;36.30;;;;;;5095692;28;21409;-62
2022/07/19 13:30:51;;;;;;;;;;;33.20;36.40;;;;;;5102542;28;19912;-65
2022/07/19 13:33:17;;;;;;;;;;;33.00;37.00;;;;;;5098386;28;19912;-63
2022/07/19 13:35:42;;;;;;;;;;;33.00;36.90;;;;;;5099587;28;19916;-64
2022/07/19 13:38:08;;;;;;;;;;;32.80;37.00;;;;;;5081394;28;19971;-66
2022/07/19 13:40:33;;;;;;;;;;;32.80;36.60;;;;;;5094095;28;19928;-64
2022/07/19 13:42:59;;;;;;;;;;;32.90;36.50;;;;;;5099124;28;19994;-64
2022/07/19 13:45:27;;;;;;;;;;;33.10;36.30;;;;;;5095632;28;19912;-65
2022/07/19 13:47:53;;;;;;;;;;;33.20;36.00;;;;;;5095084;28;19920;-66
2022/07/19 13:50:19;;;;;;;;;;;33.20;36.70;;;;;;5095524;28;20017;-64
2022/07/19 13:52:44;;;;;;;;;;;33.40;36.70;;;;;;5082095;28;19947;-65
2022/07/19 13:55:10;;;;;;;;;;;33.30;36.60;;;;;;5093491;28;19920;-65
2022/07/19 13:57:35;;;;;;;;;;;33.30;37.10;;;;;;5074563;28;20086;-64
2022/07/19 14:00:04;;;;;;;;;;;33.30;37.70;;;;;;5096732;28;19980;-64
2022/07/19 14:02:30;;;;;;;;;;;33.20;38.10;;;;;;5082349;28;20026;-65
2022/07/19 14:04:55;;;;;;;;;;;33.20;38.40;;;;;;5094382;28;19959;-65
2022/07/19 14:07:21;;;;;;;;;;;33.20;38.20;;;;;;5110033;28;19919;-64
2022/07/19 14:09:47;;;;;;;;;;;33.20;38.20;;;;;;5095735;28;19912;-66
2022/07/19 14:12:12;;;;;;;;;;;33.20;37.80;;;;;;5091250;28;20350;-64
2022/07/19 14:14:38;;;;;;;;;;;32.90;37.50;;;;;;5094308;28;19957;-65
2022/07/19 14:17:03;;;;;;;;;;;32.70;38.10;;;;;;5093554;28;20626;-65
2022/07/19 14:19:29;;;;;;;;;;;32.60;38.50;;;;;;5093039;28;19968;-65